»·PEaware :: N416JK KIFP-KBLH

N416JK :: KIFP-KBLH

FLIGHT INFORMATION

Flight Status: Arrived
Operator: Privately registered:
United States
More flights under this callsign
Pilot: John K. (4202)
Aircraft: CESSNA 208 CARAVAN
(C208)
More flights by this aircraft type
Origin: KIFP Laughlin/Bullhead Intl
United States
Destination: KBLH Blythe
United States
More flights between these airports :: More routes between these airports
Route: +EED V135 PKE
File this flight plan on PilotEdge
Remarks:
Altitude:
(Current/Filed)
6,000ft
Speed:
(Current/Filed)
130kts
Departed: 20-Aug-17 10:07 AM
Arrived: 20-Aug-17 10:51 AM
Distance/Time
Traveled:
93nm/0:44
Distance/Time
To Go:
Arrived

Flight Plot

Page will automatically refresh every two minutes.

Flight plan parsing failed; only flown route is shown


Map Options




Map Legend


Flown Route
Filed Route
Departure Airport
Arrival Airport
Navaid (VOR, NDB)
Fix

Horizontal Profiles

Position Reports

Time Latitude Longitude Heading Altitude Ground
Speed
20-Aug-17 10:02 35.159762 -114.556404 263 707ft 0kts
20-Aug-17 10:03 35.159762 -114.556404 263 707ft 0kts
20-Aug-17 10:04 35.159762 -114.556404 263 707ft 0kts
20-Aug-17 10:05 35.159762 -114.556404 263 707ft 0kts
20-Aug-17 10:06 35.159638 -114.556674 240 706ft 11kts
20-Aug-17 10:07 35.162041 -114.558545 356 707ft 15kts
20-Aug-17 10:08 35.164895 -114.558774 357 706ft 7kts
20-Aug-17 10:09 35.166191 -114.559068 267 706ft 0kts
20-Aug-17 10:10 35.166066 -114.560073 217 706ft 15kts
20-Aug-17 10:11 35.159788 -114.559781 179 707ft 92kts
20-Aug-17 10:12 35.131132 -114.559455 192 1496ft 108kts
20-Aug-17 10:13 35.100998 -114.566459 181 2264ft 113kts
20-Aug-17 10:14 35.069950 -114.563692 179 2898ft 112kts
20-Aug-17 10:15 35.040982 -114.559112 174 3649ft 101kts
20-Aug-17 10:16 35.013732 -114.554629 174 4269ft 102kts
20-Aug-17 10:17 34.985881 -114.546905 168 4873ft 105kts
20-Aug-17 10:18 34.958122 -114.537683 169 5592ft 97kts
20-Aug-17 10:19 34.932938 -114.529327 169 6410ft 94kts
20-Aug-17 10:20 34.905895 -114.520439 169 6967ft 112kts
20-Aug-17 10:21 34.870502 -114.508826 168 6993ft 147kts
20-Aug-17 10:22 34.830037 -114.495409 168 6991ft 154kts
20-Aug-17 10:23 34.788422 -114.481644 168 6990ft 155kts
20-Aug-17 10:24 34.747189 -114.480395 197 6991ft 151kts
20-Aug-17 10:25 34.706830 -114.493005 198 6990ft 151kts
20-Aug-17 10:26 34.666417 -114.505818 190 6990ft 150kts
20-Aug-17 10:27 34.626248 -114.518372 191 6989ft 148kts
20-Aug-17 10:28 34.587219 -114.530626 191 6989ft 145kts
20-Aug-17 10:29 34.548805 -114.542398 191 6989ft 142kts
20-Aug-17 10:30 34.510787 -114.554188 191 6989ft 142kts
20-Aug-17 10:31 34.472618 -114.566125 191 6989ft 143kts
20-Aug-17 10:32 34.434547 -114.578044 190 6991ft 144kts
20-Aug-17 10:33 34.396033 -114.590090 190 6991ft 145kts
20-Aug-17 10:34 34.357968 -114.601976 190 7017ft 144kts
20-Aug-17 10:35 34.319130 -114.614098 191 7019ft 144kts
20-Aug-17 10:36 34.281388 -114.625866 191 7019ft 143kts
20-Aug-17 10:37 34.244024 -114.637501 192 7019ft 141kts
20-Aug-17 10:38 34.206981 -114.649058 193 7016ft 140kts
20-Aug-17 10:39 34.169176 -114.660831 193 7013ft 140kts
20-Aug-17 10:40 34.132282 -114.672298 193 7009ft 140kts
20-Aug-17 10:41 34.094893 -114.682259 183 7012ft 139kts
20-Aug-17 10:42 34.056505 -114.685178 182 7010ft 139kts
20-Aug-17 10:43 34.017799 -114.687984 182 7009ft 139kts
20-Aug-17 10:44 33.979678 -114.690737 182 7008ft 135kts
20-Aug-17 10:45 33.943647 -114.693340 182 6989ft 133kts
20-Aug-17 10:46 33.902429 -114.696295 182 6098ft 158kts
20-Aug-17 10:47 33.858057 -114.699488 182 5160ft 165kts
20-Aug-17 10:48 33.812647 -114.702757 182 4124ft 163kts
20-Aug-17 10:49 33.771096 -114.705710 182 3057ft 140kts
20-Aug-17 10:50 33.733357 -114.708415 182 1968ft 130kts
20-Aug-17 10:51 33.701635 -114.710566 181 1333ft 101kts
20-Aug-17 10:52 33.674791 -114.715109 186 1243ft 85kts
20-Aug-17 10:53 33.651282 -114.716477 179 929ft 85kts
20-Aug-17 10:54 33.628077 -114.716710 177 404ft 68kts
20-Aug-17 10:55 33.618713 -114.716735 181 403ft 15kts
20-Aug-17 10:56 33.615122 -114.714461 90 402ft 23kts
20-Aug-17 10:57 33.614785 -114.711430 107 402ft 0kts
20-Aug-17 10:58 33.614785 -114.711430 107 402ft 0kts
20-Aug-17 10:59 33.614785 -114.711430 107 402ft 0kts

Navigation Log

Ident Type
Flight plan parsing failed, navigation log unavailable